Time;durP1;ratioP1;P1;durP2;ratioP2;P2;SDS_P1;SDS_P2;PMS_P1;PMS_P2;Temp;Humidity;BMP_temperature;BMP_pressure;BME280_temperature;BME280_humidity;BME280_pressure;Samples;Min_cycle;Max_cycle;Signal;HPM_P1;HPM_P2
2022/12/20 00:02:26;;;;;;;7.20;7.00;;;21.90;45.40;;;;;;4988435;28;20561;-57
2022/12/20 00:04:52;;;;;;;7.20;7.00;;;21.90;45.50;;;;;;4991811;28;20818;-55
2022/12/20 00:07:19;;;;;;;6.97;6.77;;;21.90;45.50;;;;;;4991732;28;20454;-54
2022/12/20 00:09:46;;;;;;;5.97;5.87;;;21.90;45.50;;;;;;4991463;28;20522;-56
2022/12/20 00:12:14;;;;;;;6.70;6.50;;;21.90;45.60;;;;;;4991423;28;20569;-57
2022/12/20 00:14:41;;;;;;;6.50;6.30;;;21.90;45.60;;;;;;4991991;28;20453;-53
2022/12/20 00:17:08;;;;;;;7.23;6.93;;;21.90;45.70;;;;;;4991586;28;20461;-54
2022/12/20 00:19:35;;;;;;;6.93;6.73;;;21.90;45.70;;;;;;4991237;28;20573;-55
2022/12/20 00:22:02;;;;;;;6.50;6.40;;;21.80;45.60;;;;;;4994303;28;20494;-57
2022/12/20 00:24:28;;;;;;;6.47;6.27;;;21.80;45.70;;;;;;4995050;28;20968;-56
2022/12/20 00:26:55;;;;;;;6.70;6.50;;;21.80;45.70;;;;;;4995049;28;20530;-55
2022/12/20 00:29:23;;;;;;;6.47;6.27;;;21.80;45.70;;;;;;4994856;28;20549;-54
2022/12/20 00:31:51;;;;;;;6.50;6.30;;;21.80;45.70;;;;;;4994617;28;20774;-57
2022/12/20 00:34:17;;;;;;;6.93;6.63;;;21.80;45.70;;;;;;4994806;28;20930;-54
2022/12/20 00:36:44;;;;;;;5.90;5.70;;;21.80;45.80;;;;;;4994854;28;20475;-54
2022/12/20 00:39:11;;;;;;;6.17;6.07;;;21.80;45.80;;;;;;4994603;28;20570;-57
2022/12/20 00:41:38;;;;;;;6.60;6.40;;;21.80;45.90;;;;;;4994316;28;20911;-57
2022/12/20 00:44:05;;;;;;;6.00;5.90;;;21.80;45.90;;;;;;4994720;28;20529;-53
2022/12/20 00:46:34;;;;;;;6.07;5.87;;;21.80;45.80;;;;;;4994642;28;20447;-53
2022/12/20 00:49:01;;;;;;;6.40;6.20;;;21.80;45.90;;;;;;4994309;28;20451;-56
2022/12/20 00:51:30;;;;;;;7.23;7.03;;;21.80;45.90;;;;;;4993834;28;20479;-55
2022/12/20 00:53:57;;;;;;;6.47;6.30;;;21.80;45.90;;;;;;4994505;28;20974;-58
2022/12/20 00:56:24;;;;;;;6.70;6.50;;;21.80;46.00;;;;;;4994470;28;20530;-53
2022/12/20 00:58:52;;;;;;;6.13;5.93;;;21.80;46.00;;;;;;4994186;28;20610;-55
2022/12/20 01:01:21;;;;;;;6.53;6.43;;;21.80;46.10;;;;;;4985617;28;20474;-53
2022/12/20 01:03:50;;;;;;;6.40;6.20;;;21.80;46.00;;;;;;4994399;28;20457;-54
2022/12/20 01:06:17;;;;;;;6.40;6.20;;;21.80;46.00;;;;;;4994294;28;20447;-54
2022/12/20 01:08:44;;;;;;;6.27;6.17;;;21.80;45.90;;;;;;4994160;28;20465;-59
2022/12/20 01:11:13;;;;;;;6.37;6.27;;;21.80;46.00;;;;;;4993979;28;20822;-56
2022/12/20 01:13:42;;;;;;;6.70;6.50;;;21.80;46.00;;;;;;4994172;28;20951;-54
2022/12/20 01:16:11;;;;;;;6.13;5.90;;;21.80;46.10;;;;;;4994016;28;20461;-56
2022/12/20 01:18:38;;;;;;;6.33;6.10;;;21.80;46.10;;;;;;4993969;28;20447;-55
2022/12/20 01:21:08;;;;;;;6.37;6.17;;;21.80;46.10;;;;;;4993452;28;20473;-57
2022/12/20 01:23:35;;;;;;;6.87;6.67;;;21.80;46.20;;;;;;4993985;28;20946;-54
2022/12/20 01:26:04;;;;;;;6.23;6.03;;;21.80;46.20;;;;;;4994111;28;20541;-56
2022/12/20 01:28:32;;;;;;;6.53;6.33;;;21.80;46.20;;;;;;4993796;28;20442;-57
2022/12/20 01:30:58;;;;;;;6.63;6.43;;;21.80;46.20;;;;;;4993236;28;20471;-57
2022/12/20 01:33:25;;;;;;;5.83;5.73;;;21.70;46.20;;;;;;4993584;28;20962;-55
2022/12/20 01:35:57;;;;;;;5.77;5.67;;;21.70;46.20;;;;;;4993702;28;20454;-56
2022/12/20 01:38:25;;;;;;;6.10;6.00;;;21.70;46.20;;;;;;4993656;28;20484;-56
2022/12/20 01:40:52;;;;;;;6.20;6.10;;;21.70;46.20;;;;;;4993096;28;20875;-54
2022/12/20 01:43:20;;;;;;;6.50;6.30;;;21.70;46.20;;;;;;4993553;28;20461;-55
2022/12/20 01:45:47;;;;;;;5.97;5.87;;;21.80;46.30;;;;;;4993575;28;20461;-56
2022/12/20 01:48:18;;;;;;;6.23;6.10;;;21.70;46.30;;;;;;4993266;28;20447;-55
2022/12/20 01:50:45;;;;;;;5.90;5.80;;;21.80;46.40;;;;;;4993545;28;20475;-57
2022/12/20 01:53:12;;;;;;;6.43;6.23;;;21.70;46.40;;;;;;4974204;28;20447;-57
2022/12/20 01:55:41;;;;;;;6.30;6.10;;;21.70;46.40;;;;;;4974007;28;20451;-57
2022/12/20 01:58:10;;;;;;;5.70;5.60;;;21.70;46.40;;;;;;4974002;28;20460;-56
2022/12/20 02:00:37;;;;;;;5.50;5.40;;;21.70;46.40;;;;;;4982710;28;20486;-53
2022/12/20 02:03:07;;;;;;;6.43;6.30;;;21.70;46.50;;;;;;4993678;28;20451;-53
2022/12/20 02:05:36;;;;;;;6.23;6.03;;;21.70;46.50;;;;;;4993728;28;20513;-54
2022/12/20 02:08:03;;;;;;;6.60;6.30;;;21.70;46.50;;;;;;4993871;28;20822;-54
2022/12/20 02:10:50;;;;;;;5.70;5.60;;;21.70;46.60;;;;;;4993585;28;20435;-54
2022/12/20 02:13:28;;;;;;;6.87;6.57;;;21.70;46.50;;;;;;4989059;28;20451;-54
2022/12/20 02:15:57;;;;;;;5.97;5.77;;;21.70;46.50;;;;;;4993500;28;20458;-56
2022/12/20 02:18:29;;;;;;;5.70;5.60;;;21.70;46.50;;;;;;4993336;28;20817;-57
2022/12/20 02:21:16;;;;;;;5.70;5.60;;;21.70;46.50;;;;;;4992391;28;20482;-57
2022/12/20 02:24:27;;;;;;;5.70;5.60;;;21.70;46.50;;;;;;4993585;28;20453;-57
2022/12/20 02:27:31;;;;;;;5.87;5.77;;;21.70;46.50;;;;;;4993514;28;20457;-55
2022/12/20 02:30:12;;;;;;;5.30;5.20;;;21.70;46.60;;;;;;4951974;29;20444;-57
2022/12/20 02:32:44;;;;;;;6.40;6.20;;;21.70;46.60;;;;;;4989434;28;20465;-54
2022/12/20 02:35:15;;;;;;;6.23;6.03;;;21.70;46.70;;;;;;4993325;28;20439;-55
2022/12/20 02:37:53;;;;;;;5.87;5.77;;;21.70;46.70;;;;;;4992983;28;20447;-56
2022/12/20 02:40:23;;;;;;;5.80;5.70;;;21.70;46.70;;;;;;4992612;28;20478;-56
2022/12/20 02:42:53;;;;;;;6.00;5.80;;;21.60;46.70;;;;;;4993123;28;20479;-56
2022/12/20 02:45:25;;;;;;;6.53;6.33;;;21.60;46.70;;;;;;4993182;28;20453;-58
2022/12/20 02:47:56;;;;;;;6.03;5.93;;;21.60;46.90;;;;;;4993161;28;20497;-56
2022/12/20 02:50:27;;;;;;;5.93;5.83;;;21.60;46.90;;;;;;4992187;28;20965;-57
2022/12/20 02:52:54;;;;;;;5.63;5.53;;;21.60;47.00;;;;;;4993213;28;20862;-57
2022/12/20 02:55:30;;;;;;;6.07;5.90;;;21.60;47.00;;;;;;4993015;28;20481;-57
2022/12/20 02:58:02;;;;;;;6.10;6.00;;;21.60;47.10;;;;;;4992685;28;20450;-57
2022/12/20 03:00:36;;;;;;;5.50;5.40;;;21.60;47.10;;;;;;4984355;28;20843;-57
2022/12/20 03:05:50;;;;;;;6.03;5.93;;;21.70;47.70;;;;;;4973495;28;20563;-56
2022/12/20 03:08:17;;;;;;;6.70;6.50;;;21.60;47.10;;;;;;4992138;28;20443;-56
2022/12/20 03:10:44;;;;;;;5.53;5.43;;;21.60;47.20;;;;;;4992783;28;20463;-56
2022/12/20 03:13:11;;;;;;;5.40;5.30;;;21.60;47.20;;;;;;4992754;28;20453;-57
2022/12/20 03:15:39;;;;;;;5.83;5.73;;;21.60;47.30;;;;;;4992754;28;20447;-55
2022/12/20 03:18:06;;;;;;;5.83;5.73;;;21.60;47.30;;;;;;4992527;28;20450;-56
2022/12/20 03:20:33;;;;;;;5.60;5.50;;;21.60;47.30;;;;;;4992596;28;20585;-57
2022/12/20 03:23:00;;;;;;;6.10;5.90;;;21.60;47.30;;;;;;4993077;28;20537;-56
2022/12/20 03:25:27;;;;;;;6.10;5.90;;;21.60;47.30;;;;;;4992994;28;20449;-56
2022/12/20 03:27:54;;;;;;;6.07;5.97;;;21.60;47.30;;;;;;4992660;28;20450;-57
2022/12/20 03:30:21;;;;;;;5.80;5.70;;;21.60;47.30;;;;;;4992437;28;20533;-57
2022/12/20 03:32:49;;;;;;;6.50;6.30;;;21.60;47.40;;;;;;4992851;28;20457;-58
2022/12/20 03:35:16;;;;;;;6.10;6.00;;;21.60;47.40;;;;;;4992817;28;20514;-56
2022/12/20 03:37:43;;;;;;;5.97;5.87;;;21.60;47.50;;;;;;4992570;28;20447;-54
2022/12/20 03:40:11;;;;;;;6.40;6.20;;;21.60;47.50;;;;;;4992581;28;20487;-58
2022/12/20 03:42:38;;;;;;;6.17;6.07;;;21.60;47.50;;;;;;4992651;28;20534;-58
2022/12/20 03:45:06;;;;;;;6.40;6.20;;;21.60;47.60;;;;;;4992690;28;20443;-54
2022/12/20 03:47:33;;;;;;;6.50;6.40;;;21.60;47.70;;;;;;4992650;28;20813;-54
2022/12/20 03:50:01;;;;;;;7.33;7.13;;;21.60;48.20;;;;;;4992369;28;20438;-56
2022/12/20 03:52:28;;;;;;;5.70;5.60;;;21.60;47.70;;;;;;4992590;28;20470;-58
2022/12/20 03:54:54;;;;;;;6.20;6.10;;;21.50;47.60;;;;;;4992627;28;21025;-57
2022/12/20 03:57:21;;;;;;;6.37;6.20;;;21.50;47.70;;;;;;4995971;28;20541;-55
2022/12/20 03:59:48;;;;;;;6.70;6.57;;;21.50;47.70;;;;;;4995923;28;20486;-58
2022/12/20 04:02:15;;;;;;;7.30;7.10;;;21.50;47.70;;;;;;4996077;28;20907;-55
2022/12/20 04:04:42;;;;;;;6.47;6.37;;;21.60;47.80;;;;;;4996062;28;20973;-58
2022/12/20 04:07:10;;;;;;;6.60;6.50;;;21.60;47.80;;;;;;4996373;28;20791;-57
2022/12/20 04:09:37;;;;;;;6.90;6.70;;;21.60;47.80;;;;;;4995975;28;20446;-57
2022/12/20 04:12:04;;;;;;;6.83;6.70;;;21.60;47.70;;;;;;4996265;28;20549;-57
2022/12/20 04:14:31;;;;;;;6.67;6.47;;;21.70;47.70;;;;;;4996015;28;20960;-57
2022/12/20 04:16:58;;;;;;;7.03;6.73;;;21.70;47.70;;;;;;4977166;28;20448;-58
2022/12/20 04:19:25;;;;;;;7.10;6.90;;;21.70;47.60;;;;;;4976402;28;20444;-57
2022/12/20 04:21:54;;;;;;;6.67;6.47;;;21.70;47.60;;;;;;4976665;28;20499;-58
2022/12/20 04:24:22;;;;;;;6.90;6.70;;;21.70;47.50;;;;;;4976640;28;20986;-57
2022/12/20 04:26:49;;;;;;;7.10;6.90;;;21.80;47.60;;;;;;4995052;28;20898;-57
2022/12/20 04:29:16;;;;;;;7.23;7.10;;;21.80;47.60;;;;;;4996028;28;20542;-57
2022/12/20 04:31:43;;;;;;;6.90;6.70;;;21.80;47.50;;;;;;4995964;28;20484;-57
2022/12/20 04:34:10;;;;;;;7.20;7.00;;;21.80;47.40;;;;;;4995878;28;20533;-58
2022/12/20 04:36:36;;;;;;;7.23;7.07;;;21.80;47.30;;;;;;4995734;28;20529;-57
2022/12/20 04:39:03;;;;;;;7.20;6.90;;;21.80;47.30;;;;;;4995658;28;20451;-56
2022/12/20 04:41:32;;;;;;;6.90;6.80;;;21.80;47.40;;;;;;4995608;28;20490;-57
2022/12/20 04:43:59;;;;;;;7.30;7.10;;;21.90;47.40;;;;;;4995868;28;20529;-56
2022/12/20 04:46:26;;;;;;;6.80;6.67;;;21.90;47.40;;;;;;4995653;28;20455;-55
2022/12/20 04:48:54;;;;;;;6.90;6.70;;;21.90;47.40;;;;;;4995862;28;20450;-58
2022/12/20 04:51:20;;;;;;;6.80;6.60;;;21.90;47.40;;;;;;4995431;28;20467;-58
2022/12/20 04:53:46;;;;;;;6.67;6.47;;;21.90;47.40;;;;;;4996006;28;20849;-57
2022/12/20 04:56:19;;;;;;;6.60;6.40;;;21.90;47.50;;;;;;4995666;28;20618;-55
2022/12/20 04:58:50;;;;;;;6.87;6.73;;;21.90;47.40;;;;;;4995596;28;20817;-56
2022/12/20 05:01:17;;;;;;;7.70;7.50;;;21.90;47.40;;;;;;4995521;28;20482;-58
2022/12/20 05:03:44;;;;;;;7.07;6.87;;;21.90;47.30;;;;;;4995724;28;20841;-57
2022/12/20 05:06:11;;;;;;;7.00;6.90;;;21.90;47.30;;;;;;4995126;28;20938;-57
2022/12/20 05:08:38;;;;;;;7.07;6.87;;;21.90;47.30;;;;;;4995676;28;20451;-57
2022/12/20 05:11:06;;;;;;;7.50;7.30;;;21.90;47.30;;;;;;4995396;28;20545;-56
2022/12/20 05:13:33;;;;;;;6.90;6.80;;;21.90;47.30;;;;;;4995382;28;20443;-57
2022/12/20 05:16:02;;;;;;;7.03;6.93;;;21.90;47.30;;;;;;4995563;28;20958;-59
2022/12/20 05:18:29;;;;;;;7.37;7.17;;;21.90;47.30;;;;;;4995739;28;20442;-58
2022/12/20 05:26:29;;;;;;;6.97;6.77;;;21.90;47.40;;;;;;4995736;28;20473;-58
2022/12/20 05:28:55;;;;;;;6.60;6.50;;;21.90;47.40;;;;;;4995127;28;20813;-58
2022/12/20 05:31:23;;;;;;;7.40;7.20;;;21.90;47.40;;;;;;4995135;28;20549;-53
2022/12/20 05:33:50;;;;;;;8.03;7.83;;;21.90;47.40;;;;;;4995558;28;20534;-58
2022/12/20 05:36:17;;;;;;;7.40;7.20;;;21.90;47.40;;;;;;4995374;28;20455;-58
2022/12/20 05:38:44;;;;;;;7.30;7.10;;;22.00;47.40;;;;;;4995017;28;20447;-57
2022/12/20 05:41:11;;;;;;;7.27;6.87;;;22.00;47.50;;;;;;4994831;28;20513;-58
2022/12/20 05:43:38;;;;;;;7.00;6.80;;;22.00;47.60;;;;;;4994661;28;20451;-57
2022/12/20 05:46:05;;;;;;;7.73;7.47;;;22.00;47.60;;;;;;4994794;28;20458;-58
2022/12/20 05:48:34;;;;;;;7.60;7.40;;;22.00;47.60;;;;;;4994752;28;20514;-56
2022/12/20 05:51:01;;;;;;;6.80;6.60;;;22.00;47.60;;;;;;4994240;28;20482;-55
2022/12/20 05:53:27;;;;;;;7.47;7.27;;;22.00;47.60;;;;;;4994600;28;20465;-57
2022/12/20 05:55:55;;;;;;;7.20;7.00;;;22.10;47.60;;;;;;4994602;28;20882;-58
2022/12/20 05:58:22;;;;;;;7.27;7.17;;;22.10;47.60;;;;;;4994559;28;20873;-57
2022/12/20 06:00:49;;;;;;;7.90;7.70;;;22.00;47.60;;;;;;4983290;28;20487;-55
2022/12/20 06:03:16;;;;;;;7.23;7.03;;;22.00;47.50;;;;;;4975706;28;20999;-56
2022/12/20 06:05:45;;;;;;;6.90;6.70;;;22.10;47.60;;;;;;4994151;28;20538;-57
2022/12/20 06:08:13;;;;;;;7.50;7.30;;;22.10;47.60;;;;;;4994476;28;20447;-57
2022/12/20 06:10:41;;;;;;;6.80;6.67;;;22.10;47.60;;;;;;4993777;28;20550;-57
2022/12/20 06:13:09;;;;;;;6.90;6.70;;;22.10;47.60;;;;;;4994047;28;20461;-56
2022/12/20 06:15:37;;;;;;;7.77;7.47;;;22.10;47.60;;;;;;4994462;28;20453;-56
2022/12/20 06:18:04;;;;;;;8.03;7.83;;;22.10;47.60;;;;;;4992284;28;20451;-62
2022/12/20 06:20:31;;;;;;;8.17;7.97;;;22.20;50.80;;;;;;4992334;28;20588;-60
2022/12/20 06:23:00;;;;;;;8.03;7.83;;;22.20;52.70;;;;;;4992739;28;20978;-59
2022/12/20 06:25:27;;;;;;;7.97;7.77;;;22.30;49.40;;;;;;4992929;28;20458;-62
2022/12/20 06:27:54;;;;;;;8.53;8.20;;;22.30;48.60;;;;;;4992829;28;20446;-60
2022/12/20 06:30:21;;;;;;;7.97;7.77;;;22.30;48.20;;;;;;4992311;28;20450;-61
2022/12/20 06:32:48;;;;;;;8.50;8.30;;;22.30;48.10;;;;;;4992650;28;20537;-62
2022/12/20 06:35:15;;;;;;;8.50;8.30;;;22.30;48.00;;;;;;4992685;28;20541;-61
2022/12/20 06:37:42;;;;;;;8.37;8.17;;;22.30;47.90;;;;;;4992591;28;20447;-61
2022/12/20 06:40:12;;;;;;;8.10;7.90;;;22.30;47.90;;;;;;4991986;28;20442;-62
2022/12/20 06:42:39;;;;;;;8.30;8.10;;;22.30;47.80;;;;;;4992570;28;20530;-60
2022/12/20 06:45:07;;;;;;;8.40;8.20;;;22.30;47.80;;;;;;4992550;28;20473;-61
2022/12/20 06:47:34;;;;;;;7.77;7.60;;;22.30;47.80;;;;;;4992507;28;20442;-61
2022/12/20 06:50:00;;;;;;;8.70;8.50;;;22.30;47.70;;;;;;4992247;28;20446;-62
2022/12/20 06:52:27;;;;;;;8.50;8.30;;;22.30;47.70;;;;;;4992492;28;21045;-62
2022/12/20 06:54:54;;;;;;;8.10;7.90;;;22.30;47.70;;;;;;4992418;28;20454;-61
2022/12/20 06:57:22;;;;;;;8.60;8.40;;;22.30;47.70;;;;;;4992358;28;20889;-59
2022/12/20 06:59:49;;;;;;;9.07;8.77;;;22.30;47.70;;;;;;4992033;28;20537;-61
2022/12/20 07:02:16;;;;;;;8.90;8.60;;;22.30;47.70;;;;;;4991965;28;21070;-61
2022/12/20 07:04:43;;;;;;;8.80;8.60;;;22.30;47.80;;;;;;4992440;28;20486;-61
2022/12/20 07:07:12;;;;;;;8.40;8.20;;;22.30;47.70;;;;;;4992193;28;20530;-61
2022/12/20 07:09:40;;;;;;;8.93;8.63;;;22.30;47.70;;;;;;4992056;28;20474;-62
2022/12/20 07:12:07;;;;;;;9.30;9.00;;;22.30;47.80;;;;;;4991834;28;20475;-62
2022/12/20 07:14:36;;;;;;;8.80;8.40;;;22.30;47.70;;;;;;4992227;28;20453;-62
2022/12/20 07:17:03;;;;;;;8.97;8.77;;;22.30;47.80;;;;;;4992143;28;20951;-61
2022/12/20 07:19:30;;;;;;;8.80;8.50;;;22.30;47.70;;;;;;4991952;28;20462;-61
2022/12/20 07:21:57;;;;;;;8.60;8.40;;;22.30;47.80;;;;;;4991757;28;21028;-62
2022/12/20 07:24:24;;;;;;;8.40;8.10;;;22.30;47.80;;;;;;4992100;28;20529;-61
2022/12/20 07:26:50;;;;;;;7.80;7.60;;;22.30;47.80;;;;;;4992106;28;20447;-61
2022/12/20 07:29:17;;;;;;;8.57;8.37;;;22.30;47.80;;;;;;4992150;28;20905;-61
2022/12/20 07:31:45;;;;;;;8.40;8.20;;;22.30;47.80;;;;;;4995883;28;20545;-61
2022/12/20 07:34:12;;;;;;;8.50;8.30;;;22.30;47.80;;;;;;4995983;28;20446;-62
2022/12/20 07:36:39;;;;;;;8.37;8.17;;;22.30;47.80;;;;;;4995939;28;20481;-60
2022/12/20 07:39:06;;;;;;;8.53;8.33;;;22.30;47.80;;;;;;4995449;28;20892;-62
2022/12/20 07:41:33;;;;;;;8.57;8.37;;;22.30;47.80;;;;;;4995455;28;20974;-60
2022/12/20 07:44:00;;;;;;;8.20;8.00;;;22.30;47.70;;;;;;4995755;28;20457;-62
2022/12/20 07:46:27;;;;;;;8.60;8.40;;;22.30;47.80;;;;;;4995795;28;20538;-61
2022/12/20 07:48:56;;;;;;;8.80;8.60;;;22.30;47.80;;;;;;4995338;28;20526;-61
2022/12/20 07:51:26;;;;;;;8.97;8.77;;;22.30;47.80;;;;;;4996065;28;20529;-62
2022/12/20 07:53:58;;;;;;;9.00;8.80;;;22.30;47.90;;;;;;4995670;28;20455;-61
2022/12/20 07:56:27;;;;;;;9.10;8.80;;;22.30;48.40;;;;;;4995607;28;20441;-60
2022/12/20 07:58:58;;;;;;;8.50;8.30;;;22.30;47.80;;;;;;4995273;28;20470;-61
2022/12/20 08:01:27;;;;;;;8.50;8.30;;;22.30;47.90;;;;;;4987204;28;20493;-59
2022/12/20 08:04:00;;;;;;;9.00;8.70;;;22.30;48.00;;;;;;4995719;28;20446;-60
2022/12/20 08:06:27;;;;;;;9.10;8.90;;;22.30;48.00;;;;;;4995490;28;20442;-60
2022/12/20 08:08:57;;;;;;;8.53;8.23;;;22.30;48.00;;;;;;4995169;28;21199;-60
2022/12/20 08:11:26;;;;;;;8.60;8.40;;;22.30;48.00;;;;;;4995368;28;20476;-60
2022/12/20 08:13:53;;;;;;;8.73;8.53;;;22.30;47.90;;;;;;4995276;28;20454;-60
2022/12/20 08:16:20;;;;;;;9.87;9.27;;;22.30;48.00;;;;;;4995209;28;20457;-60
2022/12/20 08:18:46;;;;;;;8.73;8.53;;;22.30;47.90;;;;;;4994838;28;20546;-60
2022/12/20 08:21:15;;;;;;;9.63;9.33;;;22.30;47.90;;;;;;4994848;28;20582;-60
2022/12/20 08:23:42;;;;;;;8.63;8.43;;;22.30;47.90;;;;;;4995087;28;20483;-59
2022/12/20 08:26:09;;;;;;;8.33;8.13;;;22.40;47.90;;;;;;4995351;28;20458;-59
2022/12/20 08:28:36;;;;;;;8.80;8.60;;;22.30;47.90;;;;;;4994381;28;20537;-60
2022/12/20 08:31:04;;;;;;;8.70;8.50;;;22.40;47.90;;;;;;4994642;28;20571;-59
2022/12/20 08:33:31;;;;;;;9.00;8.80;;;22.40;48.00;;;;;;4994949;28;20533;-60
2022/12/20 08:35:59;;;;;;;8.63;8.43;;;22.40;47.90;;;;;;4994845;28;20489;-60
2022/12/20 08:38:28;;;;;;;8.80;8.60;;;22.40;47.90;;;;;;4994639;28;20509;-61
2022/12/20 08:40:55;;;;;;;9.10;8.67;;;22.30;48.00;;;;;;4993681;28;20863;-59
2022/12/20 08:43:23;;;;;;;8.20;8.00;;;22.40;48.00;;;;;;4994735;28;20965;-60
2022/12/20 08:45:53;;;;;;;8.57;8.17;;;22.40;48.00;;;;;;4994723;28;20451;-61
2022/12/20 08:48:21;;;;;;;8.70;8.40;;;22.40;47.90;;;;;;4994684;28;20447;-59
2022/12/20 08:50:47;;;;;;;8.03;7.83;;;22.40;47.90;;;;;;4993389;28;20475;-60
2022/12/20 08:53:14;;;;;;;9.10;8.80;;;22.40;47.90;;;;;;4994476;28;20451;-61
2022/12/20 08:55:42;;;;;;;9.23;9.03;;;22.40;47.90;;;;;;4994495;28;21014;-61
2022/12/20 08:58:09;;;;;;;9.93;9.63;;;22.40;47.90;;;;;;4994494;28;21005;-60
2022/12/20 09:00:36;;;;;;;8.40;8.20;;;22.40;47.90;;;;;;4985144;28;20464;-61
2022/12/20 09:03:03;;;;;;;8.60;8.10;;;22.40;48.00;;;;;;4990446;28;20482;-59
2022/12/20 09:05:30;;;;;;;8.20;8.00;;;22.40;48.00;;;;;;4994018;28;20889;-59
2022/12/20 09:07:57;;;;;;;8.47;8.27;;;22.40;48.00;;;;;;4994151;28;20537;-60
2022/12/20 09:10:24;;;;;;;8.83;8.63;;;22.40;47.90;;;;;;4994517;28;20442;-60
2022/12/20 09:12:52;;;;;;;8.70;8.50;;;22.40;47.90;;;;;;4994325;28;20443;-58
2022/12/20 09:15:19;;;;;;;9.30;9.00;;;22.40;47.90;;;;;;4993794;28;20542;-62
2022/12/20 09:17:46;;;;;;;8.80;8.40;;;22.40;48.00;;;;;;4994185;28;20509;-62
2022/12/20 09:20:14;;;;;;;8.97;8.77;;;22.40;48.00;;;;;;4993775;28;20505;-60
2022/12/20 09:22:41;;;;;;;9.00;8.80;;;22.40;48.00;;;;;;4994104;28;20479;-61
2022/12/20 09:25:09;;;;;;;9.00;8.80;;;22.40;48.00;;;;;;4993756;28;20530;-58
2022/12/20 09:27:36;;;;;;;8.87;8.67;;;22.40;48.00;;;;;;4993995;28;20542;-63
2022/12/20 09:30:06;;;;;;;9.40;9.20;;;22.40;48.60;;;;;;4993739;28;20462;-60
2022/12/20 09:32:33;;;;;;;9.20;8.90;;;22.40;48.10;;;;;;4993817;28;20834;-61
2022/12/20 09:34:59;;;;;;;8.83;8.63;;;22.40;48.10;;;;;;4993877;28;20471;-61
2022/12/20 09:37:29;;;;;;;8.43;8.23;;;22.40;48.10;;;;;;4992979;28;20478;-62
2022/12/20 09:39:56;;;;;;;9.00;8.80;;;22.40;48.10;;;;;;4993589;28;20942;-61
2022/12/20 09:42:26;;;;;;;8.60;8.40;;;22.50;48.20;;;;;;4993588;28;20483;-59
2022/12/20 09:44:57;;;;;;;8.27;8.10;;;22.40;48.10;;;;;;4993855;28;20454;-59
2022/12/20 09:47:26;;;;;;;8.97;8.67;;;22.50;48.10;;;;;;4993435;28;20486;-59
2022/12/20 09:49:56;;;;;;;9.20;8.90;;;22.50;48.10;;;;;;4993446;28;20452;-59
2022/12/20 09:52:39;;;;;;;8.40;8.20;;;22.40;48.10;;;;;;4993500;28;20982;-57
2022/12/20 09:55:21;;;;;;;9.07;8.87;;;22.40;48.10;;;;;;4993612;28;20474;-61
2022/12/20 09:57:58;;;;;;;8.87;8.57;;;22.50;48.20;;;;;;4993411;28;20970;-61
2022/12/20 10:00:25;;;;;;;8.87;8.57;;;22.50;48.20;;;;;;4985377;28;20475;-59
2022/12/20 10:02:54;;;;;;;8.70;8.50;;;22.40;48.10;;;;;;4973648;28;20487;-60
2022/12/20 10:05:33;;;;;;;8.80;8.50;;;22.50;48.20;;;;;;4973914;28;20503;-58
2022/12/20 10:08:07;;;;;;;10.90;10.60;;;22.50;48.30;;;;;;4974105;28;20530;-60
2022/12/20 10:10:51;;;;;;;8.87;8.67;;;22.50;48.20;;;;;;4974880;28;20976;-59
2022/12/20 10:13:29;;;;;;;8.77;8.57;;;22.50;48.20;;;;;;4992635;28;20446;-60
2022/12/20 10:16:17;;;;;;;9.13;8.93;;;22.50;48.20;;;;;;4993115;28;20842;-60
2022/12/20 10:18:59;;;;;;;9.63;9.37;;;22.50;48.20;;;;;;4992944;28;20880;-59
2022/12/20 10:21:35;;;;;;;9.00;8.80;;;22.50;48.80;;;;;;4992846;28;20533;-60
2022/12/20 10:24:05;;;;;;;8.80;8.60;;;22.50;48.80;;;;;;4992692;28;20455;-61
2022/12/20 10:26:34;;;;;;;9.10;8.80;;;22.50;48.30;;;;;;4992855;28;20938;-61
2022/12/20 10:29:01;;;;;;;9.30;9.10;;;22.50;48.30;;;;;;4992598;28;20825;-59
2022/12/20 10:31:28;;;;;;;9.40;9.10;;;22.50;48.30;;;;;;4992650;28;20835;-60
2022/12/20 10:33:56;;;;;;;8.70;8.50;;;22.50;48.40;;;;;;4992682;28;20522;-61
2022/12/20 10:36:26;;;;;;;8.80;8.60;;;22.50;48.40;;;;;;4992377;28;20447;-58
2022/12/20 10:38:54;;;;;;;9.00;8.80;;;22.50;48.40;;;;;;4992915;28;20455;-61
2022/12/20 10:41:23;;;;;;;8.93;8.73;;;22.60;50.20;;;;;;4992286;28;20533;-62
2022/12/20 10:43:55;;;;;;;9.00;8.77;;;22.60;49.20;;;;;;4992575;28;20501;-58
2022/12/20 10:46:22;;;;;;;10.13;9.83;;;22.70;49.10;;;;;;4992587;28;20549;-61
2022/12/20 10:48:50;;;;;;;9.40;9.10;;;22.70;49.00;;;;;;4992235;28;20550;-63
2022/12/20 10:51:20;;;;;;;9.70;9.40;;;22.70;52.10;;;;;;4992356;28;20491;-63
2022/12/20 10:53:56;;;;;;;12.20;11.60;;;22.80;50.50;;;;;;4992973;28;20447;-61
2022/12/20 10:56:26;;;;;;;14.20;13.77;;;22.90;49.80;;;;;;4993236;28;20505;-61
2022/12/20 10:58:55;;;;;;;13.30;12.90;;;22.90;49.90;;;;;;4992202;28;20482;-57
2022/12/20 11:01:25;;;;;;;14.00;13.60;;;22.90;50.80;;;;;;4992127;28;20470;-61
2022/12/20 11:03:57;;;;;;;13.40;13.00;;;23.00;51.10;;;;;;4992183;28;20446;-62
2022/12/20 11:06:30;;;;;;;12.93;12.53;;;23.00;50.10;;;;;;4992389;28;20461;-59
2022/12/20 11:09:25;;;;;;;13.20;12.90;;;23.10;49.70;;;;;;4991829;28;20511;-62
2022/12/20 11:12:06;;;;;;;14.40;14.00;;;23.20;49.80;;;;;;4981565;28;20499;-61
2022/12/20 11:14:35;;;;;;;13.93;13.53;;;23.30;49.60;;;;;;4992534;28;21049;-62
2022/12/20 11:17:14;;;;;;;14.70;14.30;;;23.30;49.50;;;;;;4992428;28;20451;-60
2022/12/20 11:19:59;;;;;;;14.10;13.70;;;23.30;49.20;;;;;;4992500;28;20452;-60
2022/12/20 11:22:37;;;;;;;13.27;12.97;;;23.40;49.10;;;;;;4992314;28;20493;-62
2022/12/20 11:25:19;;;;;;;14.30;13.90;;;23.40;49.90;;;;;;4992366;28;20446;-58
2022/12/20 11:28:00;;;;;;;14.93;14.43;;;23.50;48.90;;;;;;4992424;28;20529;-60
2022/12/20 11:30:39;;;;;;;13.90;13.50;;;23.50;48.50;;;;;;4991977;28;20446;-57
2022/12/20 11:33:28;;;;;;;14.03;13.63;;;23.50;48.30;;;;;;4992369;28;20526;-65
2022/12/20 11:36:02;;;;;;;14.97;14.47;;;23.50;48.30;;;;;;4989015;28;20463;-57
2022/12/20 11:38:40;;;;;;;14.60;14.13;;;23.60;49.40;;;;;;4992462;28;20455;-58
2022/12/20 11:41:20;;;;;;;13.70;13.30;;;23.70;49.80;;;;;;4992403;28;20466;-58
2022/12/20 11:44:01;;;;;;;15.13;14.73;;;23.80;49.50;;;;;;4992722;28;20494;-60
2022/12/20 11:46:40;;;;;;;14.47;13.97;;;23.80;49.30;;;;;;4992250;28;20450;-63
2022/12/20 11:49:34;;;;;;;15.37;14.90;;;23.90;50.00;;;;;;4992023;28;20513;-60
2022/12/20 11:52:06;;;;;;;15.33;14.83;;;23.90;50.20;;;;;;4973885;28;20478;-61
2022/12/20 11:54:41;;;;;;;14.07;13.63;;;23.90;50.00;;;;;;4991498;28;20814;-60
2022/12/20 11:57:17;;;;;;;14.70;14.30;;;24.00;50.40;;;;;;4971933;28;20447;-61
2022/12/20 11:59:48;;;;;;;14.70;14.30;;;24.10;50.20;;;;;;4972421;28;20451;-62
2022/12/20 12:02:20;;;;;;;15.37;14.87;;;24.10;50.20;;;;;;4972289;28;20845;-61
2022/12/20 12:04:55;;;;;;;14.37;13.97;;;24.10;49.90;;;;;;4972442;28;20534;-62
2022/12/20 12:07:26;;;;;;;14.73;14.33;;;24.20;49.90;;;;;;4977299;28;20446;-61
2022/12/20 12:09:59;;;;;;;14.93;14.43;;;24.20;49.50;;;;;;4991066;28;20457;-63
2022/12/20 12:12:28;;;;;;;14.73;14.33;;;24.20;49.00;;;;;;4991548;28;20548;-62
2022/12/20 12:15:00;;;;;;;14.53;14.13;;;24.30;49.10;;;;;;4991552;28;20457;-62
2022/12/20 12:17:35;;;;;;;14.70;14.30;;;24.30;48.80;;;;;;4994463;28;20446;-63
2022/12/20 12:20:18;;;;;;;14.20;13.80;;;24.30;48.50;;;;;;4995158;28;20452;-61
2022/12/20 12:22:49;;;;;;;13.93;13.43;;;24.30;48.40;;;;;;4995313;28;21012;-62
2022/12/20 12:25:19;;;;;;;13.40;13.10;;;24.40;48.50;;;;;;4995463;28;20446;-64
2022/12/20 12:27:46;;;;;;;13.83;13.43;;;24.40;48.30;;;;;;4995355;28;20818;-61
2022/12/20 12:30:14;;;;;;;14.40;14.00;;;24.40;48.80;;;;;;4994847;28;20959;-63
2022/12/20 12:32:47;;;;;;;15.63;15.13;;;24.50;48.70;;;;;;4994904;28;21004;-64
2022/12/20 12:35:48;;;;;;;14.40;14.00;;;24.50;49.30;;;;;;4995445;28;20438;-63
2022/12/20 12:38:39;;;;;;;14.27;13.87;;;24.40;48.90;;;;;;4995188;28;20446;-61
2022/12/20 12:41:37;;;;;;;13.80;13.40;;;24.50;49.40;;;;;;4994689;28;20474;-62
2022/12/20 12:44:35;;;;;;;15.03;14.63;;;24.50;49.00;;;;;;4973694;28;20489;-58
2022/12/20 12:47:11;;;;;;;14.07;13.67;;;24.50;48.40;;;;;;4994874;28;20461;-60
2022/12/20 12:49:39;;;;;;;14.70;14.30;;;24.50;48.70;;;;;;4994666;28;20461;-61
2022/12/20 12:52:07;;;;;;;14.43;13.93;;;24.50;47.90;;;;;;4994687;28;20986;-62
2022/12/20 12:54:38;;;;;;;14.80;14.30;;;24.50;48.90;;;;;;4995067;28;20459;-62
2022/12/20 12:57:14;;;;;;;14.40;14.00;;;24.50;48.70;;;;;;4995473;28;20443;-66
2022/12/20 12:59:46;;;;;;;14.13;13.77;;;24.50;49.10;;;;;;4995065;28;20446;-69
2022/12/20 13:02:33;;;;;;;15.40;15.00;;;24.50;48.60;;;;;;4995057;28;20467;-66
2022/12/20 13:05:01;;;;;;;14.33;14.00;;;24.50;48.90;;;;;;4995030;28;20455;-64
2022/12/20 13:07:42;;;;;;;14.83;14.43;;;24.50;48.60;;;;;;4995112;28;20455;-65